sensor_id;sensor_type;location;lat;lon;timestamp;temperature;humidity
81869;DHT22;71320;52.252;13.382;2023-07-13T05:32:11;25.80;46.90
81869;DHT22;71320;52.252;13.382;2023-07-13T05:37:12;26.20;49.90
81869;DHT22;71320;52.252;13.382;2023-07-13T05:42:14;26.30;46.50
81869;DHT22;71320;52.252;13.382;2023-07-13T05:47:17;26.50;46.40
81869;DHT22;71320;52.252;13.382;2023-07-13T05:52:19;26.60;46.60
81869;DHT22;71320;52.252;13.382;2023-07-13T05:57:21;26.90;48.70
81869;DHT22;71320;52.252;13.382;2023-07-13T06:02:27;27.00;46.70
81869;DHT22;71320;52.252;13.382;2023-07-13T06:07:29;27.20;47.60
81869;DHT22;71320;52.252;13.382;2023-07-13T06:12:31;27.40;47.40
81869;DHT22;71320;52.252;13.382;2023-07-13T06:17:34;27.80;48.50
81869;DHT22;71320;52.252;13.382;2023-07-13T06:22:36;27.80;46.40
81869;DHT22;71320;52.252;13.382;2023-07-13T06:27:38;27.90;46.60
81869;DHT22;71320;52.252;13.382;2023-07-13T06:32:41;28.00;46.10
81869;DHT22;71320;52.252;13.382;2023-07-13T06:37:42;28.10;46.80
81869;DHT22;71320;52.252;13.382;2023-07-13T06:42:44;28.20;46.20
81869;DHT22;71320;52.252;13.382;2023-07-13T06:47:47;28.40;50.00
81869;DHT22;71320;52.252;13.382;2023-07-13T06:52:50;28.40;45.90
81869;DHT22;71320;52.252;13.382;2023-07-13T06:57:51;28.40;45.30
81869;DHT22;71320;52.252;13.382;2023-07-13T07:02:54;28.50;46.00
81869;DHT22;71320;52.252;13.382;2023-07-13T07:07:56;28.70;48.30
81869;DHT22;71320;52.252;13.382;2023-07-13T07:12:58;28.70;46.60
81869;DHT22;71320;52.252;13.382;2023-07-13T07:18:01;28.80;47.10
81869;DHT22;71320;52.252;13.382;2023-07-13T07:23:03;28.80;45.40
81869;DHT22;71320;52.252;13.382;2023-07-13T07:28:05;28.90;45.70
81869;DHT22;71320;52.252;13.382;2023-07-13T07:33:08;28.90;45.70
81869;DHT22;71320;52.252;13.382;2023-07-13T07:38:09;28.90;47.30
81869;DHT22;71320;52.252;13.382;2023-07-13T07:43:12;29.00;46.70
81869;DHT22;71320;52.252;13.382;2023-07-13T07:48:15;29.00;45.30
81869;DHT22;71320;52.252;13.382;2023-07-13T07:53:17;29.10;47.00
81869;DHT22;71320;52.252;13.382;2023-07-13T07:58:18;29.10;44.80
81869;DHT22;71320;52.252;13.382;2023-07-13T08:03:21;29.20;43.90
81869;DHT22;71320;52.252;13.382;2023-07-13T08:08:23;29.20;44.50
81869;DHT22;71320;52.252;13.382;2023-07-13T08:13:25;29.20;44.90
81869;DHT22;71320;52.252;13.382;2023-07-13T08:18:28;29.20;43.70
81869;DHT22;71320;52.252;13.382;2023-07-13T08:23:30;29.30;45.70
81869;DHT22;71320;52.252;13.382;2023-07-13T08:28:33;29.30;45.60
81869;DHT22;71320;52.252;13.382;2023-07-13T08:33:36;29.30;44.30
81869;DHT22;71320;52.252;13.382;2023-07-13T08:38:38;29.30;44.50
81869;DHT22;71320;52.252;13.382;2023-07-13T08:43:41;29.20;44.10
81869;DHT22;71320;52.252;13.382;2023-07-13T08:48:48;29.20;43.70
81869;DHT22;71320;52.252;13.382;2023-07-13T08:53:55;29.20;43.20
81869;DHT22;71320;52.252;13.382;2023-07-13T08:59:01;29.20;43.70
81869;DHT22;71320;52.252;13.382;2023-07-13T09:04:09;29.30;43.80
81869;DHT22;71320;52.252;13.382;2023-07-13T09:09:21;29.30;47.00
81869;DHT22;71320;52.252;13.382;2023-07-13T09:14:42;29.30;43.70
81869;DHT22;71320;52.252;13.382;2023-07-13T09:19:53;29.30;43.50
81869;DHT22;71320;52.252;13.382;2023-07-13T09:25:02;29.20;42.50
81869;DHT22;71320;52.252;13.382;2023-07-13T09:30:23;29.20;42.90
81869;DHT22;71320;52.252;13.382;2023-07-13T09:35:28;29.10;42.20
81869;DHT22;71320;52.252;13.382;2023-07-13T09:40:46;29.00;42.40
81869;DHT22;71320;52.252;13.382;2023-07-13T09:45:52;28.90;41.80
81869;DHT22;71320;52.252;13.382;2023-07-13T09:50:55;28.80;41.70
81869;DHT22;71320;52.252;13.382;2023-07-13T09:55:58;28.90;41.50
81869;DHT22;71320;52.252;13.382;2023-07-13T10:01:01;28.80;41.70
81869;DHT22;71320;52.252;13.382;2023-07-13T10:06:12;28.80;43.10
81869;DHT22;71320;52.252;13.382;2023-07-13T10:11:21;28.80;41.10
81869;DHT22;71320;52.252;13.382;2023-07-13T10:16:25;28.60;40.70
81869;DHT22;71320;52.252;13.382;2023-07-13T10:21:30;28.50;40.50
81869;DHT22;71320;52.252;13.382;2023-07-13T10:26:34;28.40;40.00
81869;DHT22;71320;52.252;13.382;2023-07-13T10:31:38;28.30;39.90
81869;DHT22;71320;52.252;13.382;2023-07-13T10:36:43;28.40;40.20
81869;DHT22;71320;52.252;13.382;2023-07-13T10:41:46;28.40;40.00
81869;DHT22;71320;52.252;13.382;2023-07-13T10:46:50;28.50;40.30
81869;DHT22;71320;52.252;13.382;2023-07-13T10:51:53;28.50;42.00
81869;DHT22;71320;52.252;13.382;2023-07-13T10:57:10;28.60;40.90
81869;DHT22;71320;52.252;13.382;2023-07-13T11:02:25;28.60;40.40
81869;DHT22;71320;52.252;13.382;2023-07-13T11:07:30;28.70;41.30
81869;DHT22;71320;52.252;13.382;2023-07-13T11:12:51;28.70;43.00
81869;DHT22;71320;52.252;13.382;2023-07-13T11:17:54;28.80;43.70
81869;DHT22;71320;52.252;13.382;2023-07-13T11:23:29;28.70;42.30
81869;DHT22;71320;52.252;13.382;2023-07-13T11:28:32;28.80;42.70
81869;DHT22;71320;52.252;13.382;2023-07-13T11:33:52;28.80;41.80
81869;DHT22;71320;52.252;13.382;2023-07-13T11:39:03;28.90;45.00
81869;DHT22;71320;52.252;13.382;2023-07-13T11:44:11;28.90;40.30
81869;DHT22;71320;52.252;13.382;2023-07-13T11:49:16;28.90;40.20
81869;DHT22;71320;52.252;13.382;2023-07-13T11:54:24;28.80;39.90
81869;DHT22;71320;52.252;13.382;2023-07-13T11:59:29;28.90;39.80
81869;DHT22;71320;52.252;13.382;2023-07-13T12:04:33;28.90;39.40
81869;DHT22;71320;52.252;13.382;2023-07-13T12:09:37;28.90;39.50
81869;DHT22;71320;52.252;13.382;2023-07-13T12:14:39;28.90;38.50
81869;DHT22;71320;52.252;13.382;2023-07-13T12:19:41;28.90;38.50
81869;DHT22;71320;52.252;13.382;2023-07-13T12:24:44;28.90;38.60
81869;DHT22;71320;52.252;13.382;2023-07-13T12:29:50;28.90;39.20
81869;DHT22;71320;52.252;13.382;2023-07-13T12:34:55;28.90;38.90
81869;DHT22;71320;52.252;13.382;2023-07-13T12:39:58;29.00;39.80
81869;DHT22;71320;52.252;13.382;2023-07-13T12:45:02;29.10;40.50
81869;DHT22;71320;52.252;13.382;2023-07-13T12:50:15;29.00;39.40
81869;DHT22;71320;52.252;13.382;2023-07-13T12:55:20;29.00;39.90
81869;DHT22;71320;52.252;13.382;2023-07-13T13:00:25;29.10;40.90
81869;DHT22;71320;52.252;13.382;2023-07-13T13:05:28;29.00;39.40
81869;DHT22;71320;52.252;13.382;2023-07-13T13:10:32;29.10;40.60
81869;DHT22;71320;52.252;13.382;2023-07-13T13:15:34;29.10;40.00
81869;DHT22;71320;52.252;13.382;2023-07-13T13:20:37;29.10;40.40
81869;DHT22;71320;52.252;13.382;2023-07-13T13:25:41;29.10;39.90
81869;DHT22;71320;52.252;13.382;2023-07-13T13:30:44;29.10;39.60
81869;DHT22;71320;52.252;13.382;2023-07-13T13:35:46;29.10;41.20
81869;DHT22;71320;52.252;13.382;2023-07-13T13:40:49;29.10;39.80
81869;DHT22;71320;52.252;13.382;2023-07-13T13:45:51;29.10;39.20
81869;DHT22;71320;52.252;13.382;2023-07-13T13:50:52;29.10;37.80
81869;DHT22;71320;52.252;13.382;2023-07-13T13:55:55;29.10;40.40
81869;DHT22;71320;52.252;13.382;2023-07-13T14:00:57;29.10;38.90
81869;DHT22;71320;52.252;13.382;2023-07-13T14:05:59;28.90;37.30
81869;DHT22;71320;52.252;13.382;2023-07-13T14:11:02;28.80;37.10
81869;DHT22;71320;52.252;13.382;2023-07-13T14:16:08;28.70;37.30
81869;DHT22;71320;52.252;13.382;2023-07-13T14:21:15;28.70;37.10
81869;DHT22;71320;52.252;13.382;2023-07-13T14:26:20;28.60;36.60
81869;DHT22;71320;52.252;13.382;2023-07-13T14:31:23;28.60;36.60
81869;DHT22;71320;52.252;13.382;2023-07-13T14:36:28;28.50;36.20
81869;DHT22;71320;52.252;13.382;2023-07-13T14:41:32;28.50;36.10
81869;DHT22;71320;52.252;13.382;2023-07-13T14:46:34;28.40;36.20
81869;DHT22;71320;52.252;13.382;2023-07-13T14:51:36;28.40;35.80
81869;DHT22;71320;52.252;13.382;2023-07-13T14:56:39;28.40;35.70
81869;DHT22;71320;52.252;13.382;2023-07-13T15:01:41;28.40;36.10
81869;DHT22;71320;52.252;13.382;2023-07-13T15:06:58;28.30;35.80
81869;DHT22;71320;52.252;13.382;2023-07-13T15:12:04;28.30;36.00
81869;DHT22;71320;52.252;13.382;2023-07-13T15:17:18;28.30;35.80
81869;DHT22;71320;52.252;13.382;2023-07-13T15:22:23;28.30;35.60
81869;DHT22;71320;52.252;13.382;2023-07-13T15:27:26;28.20;35.60
81869;DHT22;71320;52.252;13.382;2023-07-13T15:32:28;28.20;35.60
81869;DHT22;71320;52.252;13.382;2023-07-13T15:37:30;28.20;35.10
81869;DHT22;71320;52.252;13.382;2023-07-13T15:42:33;28.20;35.40
81869;DHT22;71320;52.252;13.382;2023-07-13T15:47:36;28.20;35.10
81869;DHT22;71320;52.252;13.382;2023-07-13T15:52:38;28.10;35.40
81869;DHT22;71320;52.252;13.382;2023-07-13T15:57:46;28.10;35.50
81869;DHT22;71320;52.252;13.382;2023-07-13T16:02:48;28.10;35.00
81869;DHT22;71320;52.252;13.382;2023-07-13T16:07:51;28.00;35.70
81869;DHT22;71320;52.252;13.382;2023-07-13T16:12:54;28.00;34.60
81869;DHT22;71320;52.252;13.382;2023-07-13T16:17:57;28.00;34.70
81869;DHT22;71320;52.252;13.382;2023-07-13T16:22:58;27.90;34.50
81869;DHT22;71320;52.252;13.382;2023-07-13T16:28:05;27.90;34.60
81869;DHT22;71320;52.252;13.382;2023-07-13T16:33:07;27.90;35.10
81869;DHT22;71320;52.252;13.382;2023-07-13T16:38:15;27.90;34.60
81869;DHT22;71320;52.252;13.382;2023-07-13T16:43:19;27.80;34.80
81869;DHT22;71320;52.252;13.382;2023-07-13T16:48:23;27.80;34.60
81869;DHT22;71320;52.252;13.382;2023-07-13T16:53:28;27.80;34.50
81869;DHT22;71320;52.252;13.382;2023-07-13T16:58:33;27.80;34.40
81869;DHT22;71320;52.252;13.382;2023-07-13T17:03:35;27.70;34.00
81869;DHT22;71320;52.252;13.382;2023-07-13T17:08:37;27.70;34.30
81869;DHT22;71320;52.252;13.382;2023-07-13T17:13:40;27.60;34.30
81869;DHT22;71320;52.252;13.382;2023-07-13T17:18:43;27.60;34.40
81869;DHT22;71320;52.252;13.382;2023-07-13T17:23:45;27.60;34.50
81869;DHT22;71320;52.252;13.382;2023-07-13T17:28:48;27.60;34.40
81869;DHT22;71320;52.252;13.382;2023-07-13T17:33:50;27.60;34.70
81869;DHT22;71320;52.252;13.382;2023-07-13T17:38:52;27.60;34.80
81869;DHT22;71320;52.252;13.382;2023-07-13T17:43:58;27.60;35.70
81869;DHT22;71320;52.252;13.382;2023-07-13T17:48:59;27.50;36.40
81869;DHT22;71320;52.252;13.382;2023-07-13T17:54:01;27.50;37.10
81869;DHT22;71320;52.252;13.382;2023-07-13T17:59:04;27.40;37.60
81869;DHT22;71320;52.252;13.382;2023-07-13T18:04:08;27.40;38.20
81869;DHT22;71320;52.252;13.382;2023-07-13T18:09:15;27.30;38.30
81869;DHT22;71320;52.252;13.382;2023-07-13T18:14:18;27.20;38.70
81869;DHT22;71320;52.252;13.382;2023-07-13T18:19:25;27.20;39.00
81869;DHT22;71320;52.252;13.382;2023-07-13T18:24:28;27.10;39.20
81869;DHT22;71320;52.252;13.382;2023-07-13T18:29:32;27.10;39.40
81869;DHT22;71320;52.252;13.382;2023-07-13T18:34:37;27.00;39.30
81869;DHT22;71320;52.252;13.382;2023-07-13T18:39:39;26.90;39.50
81869;DHT22;71320;52.252;13.382;2023-07-13T18:44:42;26.90;39.40
81869;DHT22;71320;52.252;13.382;2023-07-13T18:49:44;26.80;39.60
81869;DHT22;71320;52.252;13.382;2023-07-13T18:54:46;26.80;39.50
81869;DHT22;71320;52.252;13.382;2023-07-13T18:59:49;26.80;39.60
81869;DHT22;71320;52.252;13.382;2023-07-13T19:04:51;26.70;39.70
81869;DHT22;71320;52.252;13.382;2023-07-13T19:09:53;26.60;39.80
81869;DHT22;71320;52.252;13.382;2023-07-13T19:14:58;26.50;39.90
